Time;durP1;ratioP1;P1;durP2;ratioP2;P2;SDS_P1;SDS_P2;PMS_P1;PMS_P2;Temp;Humidity;BMP_temperature;BMP_pressure;BME280_temperature;BME280_humidity;BME280_pressure;Samples;Min_cycle;Max_cycle;Signal;HPM_P1;HPM_P2
2024/01/20 00:01:13;;;;;;;46.28;42.28;;;-0.20;99.90;;;;;;6074441;23;20085;-75
2024/01/20 00:03:39;;;;;;;24.42;19.13;;;-0.20;99.90;;;;;;6073972;23;20088;-75
2024/01/20 00:06:05;;;;;;;45.53;41.45;;;-0.20;99.90;;;;;;6074127;23;20013;-75
2024/01/20 00:08:30;;;;;;;50.33;45.55;;;-0.20;99.90;;;;;;6074542;23;20323;-75
2024/01/20 00:10:56;;;;;;;25.10;18.60;;;-0.10;99.90;;;;;;6074573;23;20013;-75
2024/01/20 00:13:22;;;;;;;27.50;18.23;;;-0.10;99.90;;;;;;6098212;23;20021;-75
2024/01/20 00:15:47;;;;;;;50.88;46.05;;;-0.10;99.90;;;;;;6074237;23;20092;-75
2024/01/20 00:18:13;;;;;;;29.42;17.90;;;-0.20;99.90;;;;;;6074527;23;20089;-75
2024/01/20 00:20:39;;;;;;;27.67;19.13;;;-0.20;99.90;;;;;;6074324;23;20068;-75
2024/01/20 00:23:04;;;;;;;28.05;18.42;;;-0.20;99.90;;;;;;6074215;23;20057;-75
2024/01/20 00:25:30;;;;;;;28.55;19.00;;;-0.20;99.90;;;;;;6074660;23;20298;-75
2024/01/20 00:27:55;;;;;;;54.15;49.28;;;-0.20;99.90;;;;;;6076983;23;20010;-75
2024/01/20 00:30:21;;;;;;;31.92;21.23;;;-0.20;99.90;;;;;;6127424;23;20140;-75
2024/01/20 00:32:47;;;;;;;29.25;18.92;;;-0.20;99.90;;;;;;6127794;23;20014;-75
2024/01/20 00:35:12;;;;;;;53.38;48.47;;;-0.10;99.90;;;;;;6127407;23;20076;-75
2024/01/20 00:37:38;;;;;;;53.28;48.38;;;-0.20;99.90;;;;;;6127971;23;20338;-75
2024/01/20 00:40:05;;;;;;;25.15;18.02;;;-0.10;99.90;;;;;;6127938;23;20006;-75
2024/01/20 00:42:31;;;;;;;25.23;18.58;;;-0.10;99.90;;;;;;6128057;23;20017;-75
2024/01/20 00:44:57;;;;;;;28.15;17.92;;;-0.20;99.90;;;;;;6126925;23;20346;-75
2024/01/20 00:47:22;;;;;;;27.05;18.77;;;-0.30;99.90;;;;;;6127550;23;20049;-75
2024/01/20 00:49:48;;;;;;;53.75;48.70;;;-0.20;99.90;;;;;;6127932;23;20025;-76
2024/01/20 00:52:15;;;;;;;42.25;19.20;;;-0.30;99.90;;;;;;6127607;23;20020;-75
2024/01/20 00:54:40;;;;;;;30.95;19.25;;;-0.30;99.90;;;;;;6127370;23;20342;-75
2024/01/20 00:57:06;;;;;;;26.00;18.58;;;-0.30;99.90;;;;;;6151516;23;20017;-75
2024/01/20 00:59:32;;;;;;;27.67;18.95;;;-0.30;99.90;;;;;;6127459;23;20013;-75
2024/01/20 01:01:57;;;;;;;27.48;19.23;;;-0.30;99.90;;;;;;6127682;23;20522;-74
2024/01/20 01:04:23;;;;;;;30.23;20.30;;;-0.30;99.90;;;;;;6127409;23;20516;-75
2024/01/20 01:06:49;;;;;;;56.97;51.78;;;-0.40;99.90;;;;;;6127374;23;20014;-75
2024/01/20 01:09:15;;;;;;;30.48;20.88;;;-0.30;99.90;;;;;;6126971;23;20061;-75
2024/01/20 01:11:41;;;;;;;55.65;50.38;;;-0.30;99.90;;;;;;6127390;23;20104;-75
2024/01/20 01:14:06;;;;;;;31.90;21.85;;;-0.30;99.90;;;;;;6127307;23;20013;-75
2024/01/20 01:16:32;;;;;;;30.58;19.65;;;-0.40;99.90;;;;;;6127416;23;20462;-75
2024/01/20 01:18:58;;;;;;;29.42;19.85;;;-0.40;99.90;;;;;;6127513;23;20088;-75
2024/01/20 01:21:23;;;;;;;32.63;22.83;;;-0.40;99.90;;;;;;6127956;23;20005;-75
2024/01/20 01:23:49;;;;;;;59.72;54.38;;;-0.40;99.90;;;;;;6127449;23;20009;-75
2024/01/20 01:26:15;;;;;;;36.08;22.38;;;-0.40;99.90;;;;;;6126875;23;20074;-75
2024/01/20 01:28:41;;;;;;;63.60;57.50;;;-0.40;99.90;;;;;;6127197;23;20024;-75
2024/01/20 01:31:07;;;;;;;33.13;22.25;;;-0.40;99.90;;;;;;6127574;23;20014;-75
2024/01/20 01:33:32;;;;;;;33.92;22.17;;;-0.40;99.90;;;;;;6127289;23;20028;-75
2024/01/20 01:35:58;;;;;;;33.15;21.42;;;-0.50;99.90;;;;;;6127327;23;20416;-75
2024/01/20 01:38:23;;;;;;;63.80;57.83;;;-0.50;99.90;;;;;;6128655;23;20014;-75
2024/01/20 01:40:49;;;;;;;36.13;24.05;;;-0.40;99.90;;;;;;6129062;23;20016;-75
2024/01/20 01:43:15;;;;;;;38.03;22.83;;;-0.40;99.90;;;;;;6128959;23;20484;-75
2024/01/20 01:45:41;;;;;;;27.65;21.17;;;-0.40;99.90;;;;;;6129104;23;20010;-75
2024/01/20 01:48:07;;;;;;;63.30;57.65;;;-0.40;99.90;;;;;;6129469;23;20057;-75
2024/01/20 01:50:33;;;;;;;34.58;23.08;;;-0.40;99.90;;;;;;6154093;23;20033;-75
2024/01/20 01:52:58;;;;;;;31.98;23.08;;;-0.30;99.90;;;;;;6129530;23;20386;-75
2024/01/20 01:55:25;;;;;;;60.53;54.92;;;-0.30;99.90;;;;;;6129330;23;20464;-75
2024/01/20 01:57:55;;;;;;;31.58;22.88;;;-0.30;99.90;;;;;;6129002;23;20025;-75
2024/01/20 02:00:21;;;;;;;36.45;23.48;;;-0.30;99.90;;;;;;6129509;23;20060;-75
2024/01/20 02:02:47;;;;;;;60.85;55.25;;;-0.30;99.90;;;;;;6128946;23;20013;-75
2024/01/20 02:05:12;;;;;;;35.17;24.02;;;-0.30;99.90;;;;;;6129442;23;20111;-75
2024/01/20 02:07:40;;;;;;;33.70;23.30;;;-0.30;99.90;;;;;;6130192;23;20020;-75
2024/01/20 02:10:06;;;;;;;61.70;56.10;;;-0.40;99.90;;;;;;6128704;23;20108;-75
2024/01/20 02:12:34;;;;;;;61.03;55.45;;;-0.40;99.90;;;;;;6128967;23;20045;-75
2024/01/20 02:15:00;;;;;;;32.13;23.88;;;-0.40;99.90;;;;;;6128394;23;20014;-75
2024/01/20 02:17:26;;;;;;;32.33;22.15;;;-0.40;99.90;;;;;;6128781;23;20101;-75
2024/01/20 02:19:51;;;;;;;40.38;22.58;;;-0.50;99.90;;;;;;6128571;23;20467;-75
2024/01/20 02:22:17;;;;;;;36.78;22.13;;;-0.50;99.90;;;;;;6128813;23;20048;-75
2024/01/20 02:24:48;;;;;;;61.92;56.22;;;-0.50;99.90;;;;;;6128705;23;20031;-75
2024/01/20 02:27:15;;;;;;;32.70;22.17;;;-0.60;99.90;;;;;;6129058;23;20540;-75
2024/01/20 02:29:40;;;;;;;39.08;22.60;;;-0.70;99.90;;;;;;6128971;23;20068;-75
2024/01/20 02:32:07;;;;;;;37.00;22.50;;;-0.60;99.90;;;;;;6128697;23;20017;-75
2024/01/20 02:34:32;;;;;;;31.60;20.85;;;-0.70;99.90;;;;;;6127682;23;20048;-75
2024/01/20 02:36:58;;;;;;;33.72;22.65;;;-0.70;99.90;;;;;;6128255;23;20021;-75
2024/01/20 02:39:24;;;;;;;64.45;58.30;;;-0.70;99.90;;;;;;6128641;23;20064;-75
2024/01/20 02:41:50;;;;;;;34.83;23.50;;;-0.70;99.90;;;;;;6128609;23;20343;-75
2024/01/20 02:44:17;;;;;;;69.00;62.50;;;-0.80;99.90;;;;;;6128677;23;20021;-75
2024/01/20 02:46:43;;;;;;;34.10;22.92;;;-0.80;99.90;;;;;;6128388;23;20018;-75
2024/01/20 02:49:08;;;;;;;30.30;21.90;;;-0.80;99.90;;;;;;6128512;23;20349;-75
2024/01/20 02:51:34;;;;;;;35.53;21.00;;;-0.80;99.90;;;;;;6128301;23;20089;-75
2024/01/20 02:54:00;;;;;;;69.88;63.00;;;-0.90;99.90;;;;;;6128190;23;20013;-75
2024/01/20 02:56:25;;;;;;;35.65;22.38;;;-0.90;99.90;;;;;;6128603;23;20014;-75
2024/01/20 02:58:51;;;;;;;37.08;21.90;;;-0.90;99.90;;;;;;6128579;23;20010;-75
2024/01/20 03:01:17;;;;;;;37.50;23.08;;;-0.90;99.90;;;;;;6128745;23;20084;-75
2024/01/20 03:03:44;;;;;;;36.38;23.48;;;-0.90;99.90;;;;;;6152822;23;20092;-75
2024/01/20 03:06:10;;;;;;;36.67;22.27;;;-0.90;99.90;;;;;;6128011;23;20032;-76
2024/01/20 03:08:36;;;;;;;37.47;22.60;;;-1.00;99.90;;;;;;6128677;23;20021;-76
2024/01/20 03:11:02;;;;;;;40.70;22.80;;;-1.00;99.90;;;;;;6128666;23;20111;-75
2024/01/20 03:13:28;;;;;;;38.80;22.35;;;-1.10;99.90;;;;;;6128504;23;20017;-76
2024/01/20 03:15:53;;;;;;;38.08;23.70;;;-1.00;99.90;;;;;;6127853;23;20017;-75
2024/01/20 03:18:19;;;;;;;39.85;22.88;;;-1.10;99.90;;;;;;6128441;23;20085;-75
2024/01/20 03:20:45;;;;;;;37.95;21.65;;;-1.10;99.90;;;;;;6128548;23;20434;-75
2024/01/20 03:23:11;;;;;;;41.45;23.17;;;-1.10;99.90;;;;;;6127955;23;20403;-75
2024/01/20 03:25:36;;;;;;;70.20;62.92;;;-1.10;99.90;;;;;;6128360;23;20040;-75
2024/01/20 03:28:02;;;;;;;43.85;22.75;;;-1.10;99.90;;;;;;6128413;23;20020;-76
2024/01/20 03:30:28;;;;;;;39.38;23.83;;;-1.00;99.90;;;;;;6128278;23;20526;-76
2024/01/20 03:32:53;;;;;;;35.67;21.35;;;-1.10;99.90;;;;;;6128120;23;20481;-76
2024/01/20 03:35:19;;;;;;;38.00;22.30;;;-1.10;99.90;;;;;;6127606;23;20012;-75
2024/01/20 03:37:45;;;;;;;36.45;21.40;;;-1.00;99.90;;;;;;6128191;23;20014;-75
2024/01/20 03:40:10;;;;;;;42.00;23.60;;;-1.10;99.90;;;;;;6128131;23;20489;-75
2024/01/20 03:42:36;;;;;;;39.17;22.60;;;-1.00;99.90;;;;;;6128387;23;20013;-76
2024/01/20 03:45:03;;;;;;;39.20;21.90;;;-1.00;99.90;;;;;;6127456;23;20112;-75
2024/01/20 03:47:29;;;;;;;70.75;62.95;;;-1.00;99.90;;;;;;6127717;23;20045;-76
2024/01/20 03:49:55;;;;;;;40.03;23.60;;;-0.90;99.90;;;;;;6128143;23;20024;-75
2024/01/20 03:52:20;;;;;;;72.53;62.83;;;-0.90;99.90;;;;;;6127794;23;20018;-75
2024/01/20 03:54:46;;;;;;;49.00;23.70;;;-0.80;99.90;;;;;;6128276;23;20092;-75
2024/01/20 03:57:12;;;;;;;42.15;24.35;;;-0.80;99.90;;;;;;6128003;23;20096;-76
2024/01/20 03:59:37;;;;;;;41.85;23.38;;;-0.70;99.90;;;;;;6127586;23;20010;-76
2024/01/20 04:02:03;;;;;;;38.63;21.52;;;-0.80;99.90;;;;;;6128006;23;20009;-76
2024/01/20 04:04:29;;;;;;;43.97;22.55;;;-0.90;99.90;;;;;;6127713;23;20013;-77
2024/01/20 04:06:54;;;;;;;42.90;22.35;;;-0.80;99.90;;;;;;6127422;23;20025;-76
2024/01/20 04:09:20;;;;;;;40.22;22.08;;;-1.00;99.90;;;;;;6127330;23;20017;-76
2024/01/20 04:11:46;;;;;;;38.92;20.45;;;-1.00;99.90;;;;;;6127640;23;20017;-75
2024/01/20 04:14:11;;;;;;;77.03;64.00;;;-1.00;99.90;;;;;;6127480;23;20351;-76
2024/01/20 04:16:37;;;;;;;46.05;23.83;;;-1.00;99.90;;;;;;6127972;23;20068;-76
2024/01/20 04:19:03;;;;;;;42.15;21.67;;;-1.00;99.90;;;;;;6127438;23;20451;-75
2024/01/20 04:21:28;;;;;;;41.20;20.85;;;-1.10;99.90;;;;;;6128034;23;20021;-75
2024/01/20 04:23:54;;;;;;;39.55;21.20;;;-1.20;99.90;;;;;;6127644;23;20013;-75
2024/01/20 04:26:20;;;;;;;41.45;21.25;;;-1.20;99.90;;;;;;6127717;23;20020;-76
2024/01/20 04:28:45;;;;;;;44.90;22.77;;;-1.30;99.90;;;;;;6127640;23;20013;-75
2024/01/20 04:31:11;;;;;;;83.10;66.47;;;-1.30;99.90;;;;;;6127793;23;20021;-75
2024/01/20 04:33:39;;;;;;;40.38;20.55;;;-1.30;99.90;;;;;;6127392;23;20013;-75
2024/01/20 04:36:05;;;;;;;46.38;23.25;;;-1.30;99.90;;;;;;6127655;23;20013;-75
2024/01/20 04:38:31;;;;;;;41.95;22.45;;;-1.30;99.90;;;;;;6127683;23;20041;-75
2024/01/20 04:40:57;;;;;;;38.97;21.35;;;-1.40;99.90;;;;;;6127907;23;20013;-75
2024/01/20 04:43:22;;;;;;;39.60;21.08;;;-1.40;99.90;;;;;;6127187;23;20020;-75
2024/01/20 04:45:48;;;;;;;50.78;23.70;;;-1.40;99.90;;;;;;6127670;23;20014;-75
2024/01/20 04:48:16;;;;;;;47.15;21.30;;;-1.40;99.90;;;;;;6128118;23;20013;-76
2024/01/20 04:50:42;;;;;;;86.13;67.18;;;-1.40;99.90;;;;;;6127750;23;20014;-75
2024/01/20 04:53:08;;;;;;;50.17;22.83;;;-1.40;99.90;;;;;;6127402;23;20017;-75
2024/01/20 04:55:33;;;;;;;45.50;20.92;;;-1.50;99.90;;;;;;6127703;23;20012;-75
2024/01/20 04:57:59;;;;;;;46.25;23.20;;;-1.40;99.90;;;;;;6127888;23;20021;-75
2024/01/20 05:00:24;;;;;;;46.15;22.25;;;-1.50;99.90;;;;;;6127627;23;20010;-76
2024/01/20 05:02:50;;;;;;;47.90;22.55;;;-1.50;99.90;;;;;;6127388;23;20386;-75
2024/01/20 05:05:16;;;;;;;44.97;24.33;;;-1.50;99.90;;;;;;6127541;23;20334;-75
2024/01/20 05:07:41;;;;;;;45.08;22.08;;;-1.50;99.90;;;;;;6127581;23;20461;-75
2024/01/20 05:10:07;;;;;;;47.38;21.15;;;-1.40;99.90;;;;;;6127651;23;20028;-75
2024/01/20 05:12:33;;;;;;;49.85;21.17;;;-1.50;99.90;;;;;;6128773;23;20017;-75
2024/01/20 05:14:58;;;;;;;51.63;23.05;;;-1.40;99.90;;;;;;6129246;23;20528;-75
2024/01/20 05:17:24;;;;;;;40.22;21.27;;;-1.50;99.90;;;;;;6129128;23;20018;-75
2024/01/20 05:19:50;;;;;;;43.17;21.17;;;-1.50;99.90;;;;;;6129618;23;20013;-75
2024/01/20 05:22:17;;;;;;;44.85;21.45;;;-1.50;99.90;;;;;;6153745;23;20345;-76
2024/01/20 05:24:43;;;;;;;90.85;68.82;;;-1.50;99.90;;;;;;6129165;23;20024;-75
2024/01/20 05:27:10;;;;;;;50.47;23.42;;;-1.50;99.90;;;;;;6129362;23;20017;-75
2024/01/20 05:29:36;;;;;;;46.90;21.33;;;-1.50;99.90;;;;;;6130180;23;20446;-75
2024/01/20 05:32:01;;;;;;;49.55;22.10;;;-1.50;99.90;;;;;;6129336;23;20021;-75
2024/01/20 05:34:27;;;;;;;48.55;22.05;;;-1.50;99.90;;;;;;6129070;23;20096;-75
2024/01/20 05:36:52;;;;;;;48.33;21.58;;;-1.50;99.90;;;;;;6154230;23;20073;-75
2024/01/20 05:39:18;;;;;;;44.65;20.15;;;-1.50;99.90;;;;;;6129199;23;20014;-75
2024/01/20 05:41:44;;;;;;;45.20;22.20;;;-1.40;99.90;;;;;;6129154;23;20013;-75
2024/01/20 05:44:10;;;;;;;51.38;22.00;;;-1.40;99.90;;;;;;6129328;23;20084;-75
2024/01/20 05:46:35;;;;;;;44.20;21.23;;;-1.50;99.90;;;;;;6128875;23;20014;-75
2024/01/20 05:49:01;;;;;;;52.42;21.77;;;-1.50;99.90;;;;;;6129268;23;20071;-75
2024/01/20 05:51:27;;;;;;;45.80;19.30;;;-1.40;99.90;;;;;;6129249;23;20020;-75
2024/01/20 05:53:52;;;;;;;80.78;62.88;;;-1.40;99.90;;;;;;6129191;23;20328;-75
2024/01/20 05:56:20;;;;;;;53.28;22.90;;;-1.40;99.90;;;;;;6128925;23;20013;-75
2024/01/20 05:58:46;;;;;;;46.85;20.92;;;-1.40;99.90;;;;;;6128920;23;20041;-75
2024/01/20 06:01:11;;;;;;;45.35;21.65;;;-1.30;99.90;;;;;;6129209;23;20013;-75
2024/01/20 06:03:37;;;;;;;49.92;21.17;;;-1.40;99.90;;;;;;6128511;23;20009;-75
2024/01/20 06:06:04;;;;;;;45.13;21.80;;;-1.30;99.90;;;;;;6129001;23;20024;-75
2024/01/20 06:08:30;;;;;;;47.90;21.48;;;-1.40;99.90;;;;;;6129111;23;20020;-75
2024/01/20 06:10:55;;;;;;;43.90;21.45;;;-1.40;99.90;;;;;;6129354;23;20357;-75
2024/01/20 06:13:21;;;;;;;43.10;19.80;;;-1.40;99.90;;;;;;6128944;23;20025;-75
2024/01/20 06:15:47;;;;;;;42.10;20.33;;;-1.40;99.90;;;;;;6129695;23;20315;-75
2024/01/20 06:18:12;;;;;;;51.20;19.73;;;-1.40;99.90;;;;;;6128360;23;20018;-74
2024/01/20 06:20:38;;;;;;;42.70;20.23;;;-1.40;99.90;;;;;;6128451;23;20040;-75
2024/01/20 06:23:04;;;;;;;76.90;59.17;;;-1.30;99.90;;;;;;6126883;23;20013;-75
2024/01/20 06:25:29;;;;;;;44.90;20.55;;;-1.40;99.90;;;;;;6128467;23;20010;-74
2024/01/20 06:27:55;;;;;;;45.35;20.25;;;-1.40;99.90;;;;;;6129181;23;20450;-74
2024/01/20 06:30:21;;;;;;;43.70;19.27;;;-1.40;99.90;;;;;;6128850;23;20017;-74
2024/01/20 06:32:47;;;;;;;74.55;58.10;;;-1.40;99.90;;;;;;6128147;23;20013;-74
2024/01/20 06:35:12;;;;;;;46.38;20.42;;;-1.40;99.90;;;;;;6128879;23;20028;-74
2024/01/20 06:37:38;;;;;;;43.10;19.27;;;-1.40;99.90;;;;;;6129224;23;20014;-74
2024/01/20 06:40:04;;;;;;;36.40;18.58;;;-1.30;99.90;;;;;;6129100;23;20017;-74
2024/01/20 06:42:30;;;;;;;39.47;18.98;;;-1.30;99.90;;;;;;6129489;23;20338;-74
2024/01/20 06:44:56;;;;;;;41.17;18.42;;;-1.30;99.90;;;;;;6128301;23;20016;-75
2024/01/20 06:47:21;;;;;;;78.03;58.90;;;-1.30;99.90;;;;;;6128184;23;20014;-74
2024/01/20 06:49:49;;;;;;;42.53;20.40;;;-1.30;99.90;;;;;;6153022;23;20017;-74
2024/01/20 06:52:15;;;;;;;36.00;19.02;;;-1.40;99.90;;;;;;6128268;23;20056;-74
2024/01/20 06:54:41;;;;;;;45.72;19.35;;;-1.30;99.90;;;;;;6128185;23;20021;-74
2024/01/20 06:57:07;;;;;;;36.60;17.83;;;-1.40;99.90;;;;;;6128671;23;20014;-74
2024/01/20 06:59:33;;;;;;;41.17;19.35;;;-1.40;99.90;;;;;;6127666;23;20048;-74
2024/01/20 07:01:58;;;;;;;39.33;18.42;;;-1.30;99.90;;;;;;6152328;23;20074;-74
2024/01/20 07:04:24;;;;;;;35.22;18.75;;;-1.30;99.90;;;;;;6127683;23;20017;-74
2024/01/20 07:06:50;;;;;;;41.70;19.40;;;-1.30;99.90;;;;;;6152942;23;20014;-74
2024/01/20 07:09:15;;;;;;;41.38;19.25;;;-1.30;99.90;;;;;;6128192;23;20020;-74
2024/01/20 07:11:41;;;;;;;41.95;19.42;;;-1.30;99.90;;;;;;6128246;23;20021;-74
2024/01/20 07:14:07;;;;;;;43.40;19.40;;;-1.40;99.90;;;;;;6127097;23;20013;-74
2024/01/20 07:16:32;;;;;;;48.05;21.67;;;-1.30;99.90;;;;;;6152613;23;20052;-75
2024/01/20 07:18:58;;;;;;;50.58;21.17;;;-1.40;99.90;;;;;;6128444;23;20013;-75
2024/01/20 07:21:24;;;;;;;44.33;20.85;;;-1.40;99.90;;;;;;6128222;23;20009;-74
2024/01/20 07:23:49;;;;;;;45.63;21.30;;;-1.40;99.90;;;;;;6127794;23;20038;-74
2024/01/20 07:26:15;;;;;;;47.55;20.13;;;-1.40;99.90;;;;;;6128453;23;20342;-74
2024/01/20 07:28:41;;;;;;;39.88;19.27;;;-1.40;99.90;;;;;;6127279;23;20096;-74
2024/01/20 07:31:08;;;;;;;42.65;19.02;;;-1.40;99.90;;;;;;6128207;23;20053;-74
2024/01/20 07:33:33;;;;;;;37.83;17.95;;;-1.40;99.90;;;;;;6127239;23;20021;-74
2024/01/20 07:36:00;;;;;;;41.22;20.02;;;-1.40;99.90;;;;;;6127573;23;20025;-74
2024/01/20 07:38:25;;;;;;;41.05;18.98;;;-1.40;99.90;;;;;;6128371;23;20390;-74
2024/01/20 07:40:55;;;;;;;35.13;18.58;;;-1.40;99.90;;;;;;6152351;23;20006;-74
2024/01/20 07:43:21;;;;;;;34.03;17.50;;;-1.40;99.90;;;;;;6127317;23;20155;-74
2024/01/20 07:45:46;;;;;;;48.55;21.92;;;-1.40;99.90;;;;;;6128036;23;20424;-74
2024/01/20 07:48:14;;;;;;;78.07;58.92;;;-1.30;99.90;;;;;;6128141;23;20454;-75
2024/01/20 07:50:40;;;;;;;44.08;20.08;;;-1.20;99.90;;;;;;6127884;23;20021;-75
2024/01/20 07:53:06;;;;;;;42.30;19.10;;;-1.20;99.90;;;;;;6127717;23;20010;-75
2024/01/20 07:55:31;;;;;;;43.28;18.88;;;-1.20;99.90;;;;;;6129173;23;20014;-74
2024/01/20 07:57:57;;;;;;;81.80;57.97;;;-1.10;99.90;;;;;;6128092;23;20025;-75
2024/01/20 08:00:22;;;;;;;46.72;20.48;;;-1.10;99.90;;;;;;6127404;23;20009;-77
2024/01/20 08:02:51;;;;;;;40.00;19.40;;;-1.10;99.90;;;;;;6127311;23;20013;-75
2024/01/20 08:05:16;;;;;;;45.55;21.83;;;-1.00;99.90;;;;;;6127713;23;20454;-75
2024/01/20 08:07:45;;;;;;;43.63;19.67;;;-0.90;99.90;;;;;;6127868;23;20120;-73
2024/01/20 08:10:10;;;;;;;72.53;54.70;;;-0.90;99.90;;;;;;6151529;23;20045;-74
2024/01/20 08:12:36;;;;;;;42.53;21.40;;;-0.80;99.90;;;;;;6126947;23;20319;-74
2024/01/20 08:15:01;;;;;;;38.63;17.65;;;-0.70;99.90;;;;;;6127091;23;20014;-75
2024/01/20 08:17:27;;;;;;;39.88;19.17;;;-0.70;99.90;;;;;;6127752;23;20029;-75
2024/01/20 08:19:53;;;;;;;70.15;53.78;;;-0.60;99.90;;;;;;6128023;23;20320;-75
2024/01/20 08:22:19;;;;;;;40.47;19.52;;;-0.50;99.90;;;;;;6127337;23;20016;-75
2024/01/20 08:24:45;;;;;;;40.75;19.13;;;-0.50;99.90;;;;;;6127413;23;20060;-74
2024/01/20 08:27:11;;;;;;;65.85;53.78;;;-0.40;99.90;;;;;;6126928;23;20017;-75
2024/01/20 08:29:36;;;;;;;38.40;20.08;;;-0.30;99.90;;;;;;6127491;23;20013;-74
2024/01/20 08:32:02;;;;;;;36.50;17.27;;;-0.30;99.90;;;;;;6127532;23;20017;-75
2024/01/20 08:34:28;;;;;;;43.72;18.70;;;-0.20;99.90;;;;;;6151152;23;20053;-75
2024/01/20 08:36:53;;;;;;;37.97;18.23;;;-0.20;99.90;;;;;;6126690;23;20025;-75
2024/01/20 08:39:19;;;;;;;40.13;19.17;;;-0.10;99.90;;;;;;6127622;23;20010;-75
2024/01/20 08:41:45;;;;;;;57.38;47.30;;;0.00;99.90;;;;;;6127683;23;20018;-74
2024/01/20 08:44:11;;;;;;;38.28;19.20;;;0.00;99.90;;;;;;6127466;23;20014;-75
2024/01/20 08:46:36;;;;;;;36.78;17.02;;;0.10;99.90;;;;;;6128152;23;20048;-75
2024/01/20 08:49:02;;;;;;;59.13;46.15;;;0.10;99.90;;;;;;6129948;23;20023;-75
2024/01/20 08:51:27;;;;;;;41.30;18.67;;;0.20;99.90;;;;;;6129780;23;20009;-75
2024/01/20 08:53:53;;;;;;;54.55;45.03;;;0.20;99.90;;;;;;6129485;23;20013;-75
2024/01/20 08:56:19;;;;;;;36.55;16.05;;;0.20;99.90;;;;;;6129597;23;20100;-75
2024/01/20 08:58:44;;;;;;;55.35;44.47;;;0.30;99.90;;;;;;6129675;23;20010;-75
2024/01/20 09:01:10;;;;;;;37.40;16.63;;;0.30;99.90;;;;;;6128634;23;20005;-75
2024/01/20 09:03:35;;;;;;;34.08;15.45;;;0.30;99.90;;;;;;6129365;23;20499;-75
2024/01/20 09:06:01;;;;;;;53.65;43.83;;;0.30;99.90;;;;;;6129650;23;20016;-76
2024/01/20 09:08:27;;;;;;;53.42;43.15;;;0.40;99.90;;;;;;6129718;23;20056;-74
2024/01/20 09:10:52;;;;;;;31.55;15.20;;;0.40;99.90;;;;;;6129637;23;20009;-75
2024/01/20 09:13:18;;;;;;;32.13;15.70;;;0.40;99.90;;;;;;6129698;23;20020;-75
2024/01/20 09:15:45;;;;;;;27.10;13.68;;;0.50;99.90;;;;;;6128849;23;20454;-77
2024/01/20 09:18:11;;;;;;;30.70;14.57;;;0.50;99.90;;;;;;6129167;23;20017;-74
2024/01/20 09:20:37;;;;;;;48.75;39.78;;;0.50;99.90;;;;;;6154319;23;20009;-76
2024/01/20 09:23:03;;;;;;;31.50;16.00;;;0.60;99.90;;;;;;6129549;23;20027;-75
2024/01/20 09:25:29;;;;;;;47.92;39.72;;;0.60;99.90;;;;;;6129524;23;20006;-76
2024/01/20 09:27:55;;;;;;;45.92;37.97;;;0.60;99.90;;;;;;6128145;23;20021;-74
2024/01/20 09:30:21;;;;;;;34.83;16.20;;;0.70;99.90;;;;;;6129029;23;20512;-75
2024/01/20 09:32:47;;;;;;;48.72;38.30;;;0.70;99.90;;;;;;6128917;23;20017;-75
2024/01/20 09:35:12;;;;;;;47.95;39.78;;;0.80;99.90;;;;;;6128888;23;20028;-75
2024/01/20 09:37:38;;;;;;;30.63;15.93;;;0.80;99.90;;;;;;6128976;23;20014;-74
2024/01/20 09:40:08;;;;;;;44.97;37.42;;;0.80;99.90;;;;;;6153943;23;20084;-75
2024/01/20 09:42:34;;;;;;;28.15;14.57;;;0.90;99.90;;;;;;6129072;23;20391;-74
2024/01/20 09:45:00;;;;;;;29.52;14.10;;;0.90;99.90;;;;;;6129068;23;20009;-75
2024/01/20 09:47:27;;;;;;;45.35;37.88;;;0.90;99.90;;;;;;6128908;23;20394;-75
2024/01/20 09:49:53;;;;;;;46.22;38.88;;;1.00;99.90;;;;;;6128933;23;20135;-75
2024/01/20 09:52:29;;;;;;;45.83;37.33;;;1.00;99.90;;;;;;6128817;23;20033;-74
2024/01/20 09:55:21;;;;;;;33.42;14.98;;;1.00;99.90;;;;;;6129112;23;20010;-75
2024/01/20 09:57:48;;;;;;;25.75;14.48;;;1.00;99.90;;;;;;6127977;23;20358;-74
2024/01/20 10:00:16;;;;;;;44.00;36.20;;;1.00;99.90;;;;;;6129018;23;20446;-74
2024/01/20 10:02:45;;;;;;;27.33;14.95;;;1.10;99.90;;;;;;6128752;23;20056;-74
2024/01/20 10:05:12;;;;;;;42.60;36.10;;;1.10;99.90;;;;;;6128872;23;20442;-74
2024/01/20 10:07:38;;;;;;;41.55;35.88;;;1.10;99.90;;;;;;6128500;23;20017;-74
2024/01/20 10:10:05;;;;;;;42.33;34.70;;;1.20;99.90;;;;;;6128410;23;20017;-74
2024/01/20 10:12:30;;;;;;;43.40;36.53;;;1.20;99.90;;;;;;6128829;23;20450;-74
2024/01/20 10:14:56;;;;;;;34.38;16.48;;;1.20;99.90;;;;;;6153224;23;20014;-75
2024/01/20 10:17:21;;;;;;;28.38;14.77;;;1.30;99.90;;;;;;6128920;23;20052;-74
2024/01/20 10:19:47;;;;;;;42.05;36.03;;;1.30;99.90;;;;;;6128469;23;20014;-74
2024/01/20 10:22:13;;;;;;;41.92;35.53;;;1.40;99.90;;;;;;6128579;23;20052;-74
2024/01/20 10:24:48;;;;;;;39.47;35.28;;;1.40;99.90;;;;;;6128291;23;20044;-74
2024/01/20 10:27:25;;;;;;;39.70;33.72;;;1.50;99.90;;;;;;6128401;23;20458;-74
2024/01/20 10:29:50;;;;;;;37.97;33.67;;;1.50;99.90;;;;;;6128317;23;20096;-74
2024/01/20 10:32:16;;;;;;;40.38;33.58;;;1.60;99.90;;;;;;6128601;23;20056;-74
2024/01/20 10:34:43;;;;;;;37.60;33.42;;;1.60;99.90;;;;;;6152797;23;20454;-74
2024/01/20 10:37:11;;;;;;;40.22;34.03;;;1.60;99.90;;;;;;6127735;23;20060;-74
2024/01/20 10:39:44;;;;;;;24.63;13.05;;;1.70;99.90;;;;;;6128119;23;20064;-74
2024/01/20 10:42:12;;;;;;;42.67;35.38;;;1.70;99.90;;;;;;6128300;23;20102;-75
2024/01/20 10:44:50;;;;;;;39.72;34.05;;;1.80;99.90;;;;;;6128317;23;20013;-75
2024/01/20 10:47:29;;;;;;;39.13;32.67;;;1.80;99.90;;;;;;6128393;23;20453;-75
2024/01/20 10:49:55;;;;;;;39.90;33.67;;;1.70;99.90;;;;;;6129293;23;20021;-75
2024/01/20 10:52:21;;;;;;;37.72;32.58;;;1.80;99.90;;;;;;6153866;23;20018;-75
2024/01/20 10:54:48;;;;;;;36.45;32.38;;;1.80;99.90;;;;;;6128213;23;20018;-74
2024/01/20 10:57:14;;;;;;;36.70;31.40;;;1.90;99.90;;;;;;6128095;23;20017;-74
2024/01/20 10:59:42;;;;;;;37.08;33.17;;;1.90;99.90;;;;;;6152558;23;20028;-74
2024/01/20 11:02:11;;;;;;;36.70;32.78;;;1.90;99.90;;;;;;6128039;23;20052;-72
2024/01/20 11:04:39;;;;;;;37.45;33.05;;;2.00;99.90;;;;;;6152374;23;20041;-75
2024/01/20 11:07:08;;;;;;;38.42;32.85;;;2.00;99.90;;;;;;6153266;23;20092;-76
2024/01/20 11:09:40;;;;;;;38.53;33.28;;;1.90;99.90;;;;;;6128282;23;20458;-76
2024/01/20 11:12:07;;;;;;;39.42;33.60;;;2.00;99.90;;;;;;6127881;23;20020;-75
2024/01/20 11:14:33;;;;;;;25.90;13.00;;;1.90;99.90;;;;;;6128243;23;20021;-75
2024/01/20 11:17:13;;;;;;;39.28;33.97;;;1.90;99.90;;;;;;6128246;23;20037;-75
2024/01/20 11:19:40;;;;;;;39.42;33.53;;;1.90;99.90;;;;;;6128801;23;20006;-75
2024/01/20 11:22:34;;;;;;;36.30;32.40;;;1.90;99.90;;;;;;6128099;23;20426;-75
2024/01/20 11:25:05;;;;;;;38.33;34.15;;;1.90;99.90;;;;;;6128169;23;20010;-76
2024/01/20 11:27:31;;;;;;;38.30;34.08;;;1.90;99.90;;;;;;6128196;23;20017;-75
2024/01/20 11:30:08;;;;;;;39.22;33.85;;;2.00;99.90;;;;;;6128498;23;20017;-76
2024/01/20 11:32:34;;;;;;;38.42;34.15;;;2.00;99.90;;;;;;6128337;23;20052;-76
2024/01/20 11:35:00;;;;;;;38.13;32.97;;;2.00;99.90;;;;;;6129180;23;20016;-76
2024/01/20 11:37:27;;;;;;;36.85;32.75;;;2.10;99.90;;;;;;6128870;23;20017;-77
2024/01/20 11:40:04;;;;;;;36.72;32.78;;;2.10;99.90;;;;;;6080257;23;20010;-77
2024/01/20 11:42:31;;;;;;;35.33;31.55;;;2.20;99.90;;;;;;6098782;23;20446;-76
2024/01/20 11:44:56;;;;;;;38.80;32.85;;;2.20;99.90;;;;;;6099317;23;20041;-77
2024/01/20 11:47:22;;;;;;;38.45;33.63;;;2.20;99.90;;;;;;6098979;23;20014;-76
2024/01/20 11:49:47;;;;;;;36.30;32.15;;;2.30;99.90;;;;;;6098946;23;20014;-76
2024/01/20 11:52:13;;;;;;;38.05;31.77;;;2.30;99.90;;;;;;6098385;23;20045;-75
2024/01/20 11:54:39;;;;;;;36.65;32.05;;;2.30;99.90;;;;;;6098932;23;20451;-74
2024/01/20 11:57:05;;;;;;;38.67;32.85;;;2.40;99.90;;;;;;6098513;23;20018;-76
2024/01/20 11:59:31;;;;;;;34.88;30.80;;;2.40;99.90;;;;;;6098966;23;20010;-77
2024/01/20 12:01:56;;;;;;;35.47;30.80;;;2.40;99.90;;;;;;6098828;23;20020;-76
2024/01/20 12:04:22;;;;;;;33.33;29.75;;;2.50;99.90;;;;;;6098793;23;20010;-75
2024/01/20 12:06:48;;;;;;;35.30;31.33;;;2.50;99.90;;;;;;6099071;23;20013;-76
2024/01/20 12:09:15;;;;;;;34.25;29.92;;;2.50;99.90;;;;;;6099240;23;20089;-76
2024/01/20 12:11:41;;;;;;;35.28;31.05;;;2.50;99.90;;;;;;6099002;23;20060;-78
2024/01/20 12:14:10;;;;;;;33.95;30.30;;;2.50;99.90;;;;;;6098471;23;20017;-76
2024/01/20 12:16:36;;;;;;;33.72;30.13;;;2.50;99.90;;;;;;6098368;23;20049;-76
2024/01/20 12:19:02;;;;;;;34.22;29.40;;;2.50;99.90;;;;;;6099494;23;20021;-76
2024/01/20 12:21:27;;;;;;;33.83;29.63;;;2.50;99.90;;;;;;6099112;23;20017;-76
2024/01/20 12:23:53;;;;;;;32.00;28.52;;;2.50;99.90;;;;;;6099664;23;20018;-77
2024/01/20 12:26:19;;;;;;;32.75;28.48;;;2.60;99.90;;;;;;6099690;23;20014;-76